Ship Status Report: callsign P3JC7

sailwx.info

Track history (hours):
 
Tides and Currents Weather Stations Pressure Air Temp Water Temp Dewpoint Dewpoint Depression Visibility Wind Speed Wind Dir Waves Ship Positions

Callsign P3JC7 (name unknown)

Last reported at 2017-Sep-10 23:45 UTC. Time now 2017-Sep-26 11:02 UTC.
Position N 40°08' E 019°20'.
Warning: this ship's position is 15 days out of date.

Date/timePositionNaut miles runAvg speedWind from/ knotsBaromVisibWave heightAir tempDewpointWater temp
2017-Sep-10 23:45N 40°08' E 019°20'2017.3
2017-Sep-10 22:36N 40°18' E 018°58'417.4
2017-Sep-10 22:23N 40°21' E 018°53'  
2017-Sep-07 02:50N 39°49' E 019°56'6416.1
2017-Sep-06 22:50N 40°24' E 018°45'816.5
2017-Sep-06 22:22N 40°29' E 018°37'616.3
2017-Sep-06 22:00N 40°32' E 018°31'916.4
2017-Sep-06 21:28N 40°37' E 018°21'816.6
2017-Sep-06 20:59N 40°41' E 018°12'15 0.3
2017-Sep-04 20:01N 40°34' E 018°29'018.4
2017-Sep-04 20:00N 40°34' E 018°29'1418.5
2017-Sep-04 19:14N 40°42' E 018°13'  
2017-Sep-02 02:53N 40°50' E 017°53'717.5
2017-Sep-02 02:29N 40°46' E 018°01'817.3
2017-Sep-02 02:00N 40°42' E 018°11'817.1
2017-Sep-02 01:31N 40°38' E 018°20'917.3
2017-Sep-02 01:00N 40°33' E 018°30'917.6
2017-Sep-02 00:30N 40°28' E 018°40'917.8
2017-Sep-02 00:00N 40°23' E 018°50'917.8
2017-Sep-01 23:31N 40°18' E 018°59'917.4
2017-Sep-01 23:00N 40°13' E 019°08'3617.3
2017-Sep-01 20:55N 39°53' E 019°47'6 0.3
2017-Sep-01 00:58N 39°57' E 019°41'918.0
2017-Sep-01 00:29N 40°01' E 019°32'918.0
2017-Sep-01 00:00N 40°06' E 019°23'  
Track history (hours):
 
Tides and Currents Weather Stations Pressure Air Temp Water Temp Dewpoint Dewpoint Depression Visibility Wind Speed Wind Dir Waves Ship Positions

Callsign P3JC7 (name unknown)

Last reported at 2017-Sep-10 23:45 UTC. Time now 2017-Sep-26 11:02 UTC.
Position N 40°08' E 019°20'.
Warning: this ship's position is 15 days out of date.

Date/timePositionNaut miles runAvg speedWind from/ knotsBaromVisibWave heightAir tempDewpointWater temp
2017-Sep-10 23:45N 40°08' E 019°20'2017.3
2017-Sep-10 22:36N 40°18' E 018°58'417.4
2017-Sep-10 22:23N 40°21' E 018°53'  
2017-Sep-07 02:50N 39°49' E 019°56'6416.1
2017-Sep-06 22:50N 40°24' E 018°45'816.5
2017-Sep-06 22:22N 40°29' E 018°37'616.3
2017-Sep-06 22:00N 40°32' E 018°31'916.4
2017-Sep-06 21:28N 40°37' E 018°21'816.6
2017-Sep-06 20:59N 40°41' E 018°12'15 0.3
2017-Sep-04 20:01N 40°34' E 018°29'018.4
2017-Sep-04 20:00N 40°34' E 018°29'1418.5
2017-Sep-04 19:14N 40°42' E 018°13'  
2017-Sep-02 02:53N 40°50' E 017°53'717.5
2017-Sep-02 02:29N 40°46' E 018°01'817.3
2017-Sep-02 02:00N 40°42' E 018°11'817.1
2017-Sep-02 01:31N 40°38' E 018°20'917.3
2017-Sep-02 01:00N 40°33' E 018°30'917.6
2017-Sep-02 00:30N 40°28' E 018°40'917.8
2017-Sep-02 00:00N 40°23' E 018°50'917.8
2017-Sep-01 23:31N 40°18' E 018°59'917.4
2017-Sep-01 23:00N 40°13' E 019°08'3617.3
2017-Sep-01 20:55N 39°53' E 019°47'6 0.3
2017-Sep-01 00:58N 39°57' E 019°41'918.0
2017-Sep-01 00:29N 40°01' E 019°32'918.0
2017-Sep-01 00:00N 40°06' E 019°23'  

Dump ship's entire track history